HOURLY OBS INDEX

079

Wimmera - south

EDENHOPE AIRPORT

Site: 079099
Alt: 155.0m
90km WSW of HORSHAM


  Time     Wind        Temp  DP   Baro     Rain since   Rain past  Vis(m), Cloud(base in m), Weather
  local        km/h                         9am  last   hr   10m    
Sun 11:00   SW 15/ 20  16.2  8.7  ------    0.0   0.0   0.0   0.0   ----- 
Sun 11:30   SW 15/ 26  16.7  9.1  ------    0.0   0.0   0.0   0.0   ----- 
Sun 12:00  SSW 15/ 24  17.0  8.7  ------    0.0   0.0   0.0   0.0   ----- 
Sun 12:30  SSW 17/ 26  17.4  8.8  ------    0.0   0.0   0.0   0.0   ----- 
Sun 13:00  SSW 15/ 26  17.6  9.0  ------    0.0   0.0   0.0   0.0   ----- 
Sun 13:30   SW 17/ 26  17.9  8.7  ------    0.0   0.0   0.0   0.0   ----- 
Sun 14:00    S 19/ 28  17.8  7.8  ------    0.0   0.0   0.0   0.0   ----- 
Sun 14:30    S 15/ 28  19.4  7.5  ------    0.0   0.0   0.0   0.0   ----- 
Sun 15:00   SW 20/ 28  19.6  7.7  ------    0.0   0.0   0.0   0.0   ----- 
Sun 15:30    S 17/ 30  18.9  7.4  ------    0.0   0.0   0.0   0.0   ----- 
Sun 16:00  SSW 13/ 24  19.5  6.9  ------    0.0   0.0   0.0   0.0   ----- 
Sun 16:30  SSE 19/ 24  18.8  7.6  ------    0.0   0.0   0.0   0.0   ----- 

GRAMPIANS (MOUNT WILLIAM)

Site: 079103
Alt: 1150.0m
29km W of ARARAT


  Time     Wind        Temp  DP   Baro     Rain since   Rain past  Vis(m), Cloud(base in m), Weather
  local        km/h                         9am  last   hr   10m    
Sun 11:00   SW 24/ 43   6.9  6.9  ------    0.0   0.0   0.0   0.0   ----- 
Sun 11:30   SW 24/ 39   7.2  7.2  ------    0.0   0.0   0.0   0.0   ----- 
Sun 12:00  WSW 17/ 33   7.1  7.1  ------    0.0   0.0   0.0   0.0   ----- 
Sun 12:30   SW 24/ 39   7.4  7.4  ------    0.0   0.0   0.0   0.0   ----- 
Sun 13:00   SW 19/ 26   7.6  7.6  ------    0.0   0.0   0.0   0.0   ----- 
Sun 13:30   SW 13/ 28   7.9  7.9  ------    0.0   0.0   0.0   0.0   ----- 
Sun 14:00  WSW 15/ 32   9.5  9.4  ------    0.0   0.0   0.0   0.0   ----- 
Sun 14:30   SW 17/ 26   8.6  8.3  ------    0.0   0.0   0.0   0.0   ----- 
Sun 15:00    W  7/ 22   9.5  8.9  ------    0.0   0.0   0.0   0.0   ----- 
Sun 15:30  WSW  9/ 22   9.0  7.9  ------    0.0   0.0   0.0   0.0   ----- 
Sun 16:00   SW 11/ 22   8.9  7.8  ------    0.2   0.0   0.0   0.0   ----- 
Sun 16:30   SW 15/ 24   8.2  7.1  ------    0.2   0.0   0.0   0.0   ----- 

HORSHAM AERODROME

Site: 079100
Alt: 133.8m
5km NNW of HORSHAM


  Time     Wind        Temp  DP   Baro     Rain since   Rain past  Vis(m), Cloud(base in m), Weather
  local        km/h                         9am  last   hr   10m    
Sun 11:00   SW 26/ 33  19.0  9.5  1011.1    0.0   0.0   0.0   0.0   10000|SC 990 OC1350 
Sun 11:30   SW 33/ 45  18.6  8.8  1011.5    0.0   0.0   0.0   0.0   10000|SC 990 SC1140 OC1410 
Sun 12:00    S 30/ 41  19.7  7.8  1011.6    0.0   0.0   0.0   0.0   10000|SC1200 SC1380 
Sun 12:30  SSW 28/ 37  21.0  8.3  1011.9    0.0   0.0   0.0   0.0   10000|BR1320 
Sun 13:00  SSW 26/ 45  20.4  6.7  1012.0    0.0   0.0   0.0   0.0   10000|BR1440 
Sun 13:30  SSW 24/ 35  21.0  6.2  1012.3    0.0   0.0   0.0   0.0   10000|BR1560 
Sun 14:00  SSW 26/ 39  21.0  6.5  1012.2    0.0   0.0   0.0   0.0   10000|BR1560 
Sun 14:30  SSW 30/ 41  21.6  5.5  1012.3    0.0   0.0   0.0   0.0   10000|SC1560 
Sun 15:00    S 26/ 43  21.3  6.4  1012.1    0.0   0.0   0.0   0.0   10000|BR1680 
Sun 15:30    W 17/ 28  21.7  6.0  1012.1    0.0   0.0   0.0   0.0   10000|BR1680 
Sun 16:00  SSW 22/ 35  22.6  6.4  1012.2    0.0   0.0   0.0   0.0   10000|BR1740 
Sun 16:30  SSW 22/ 32  22.7  6.5  1012.3    0.0   0.0   0.0   0.0   10000|SC1740 

KANAGULK

Site: 079097
Alt: 188.8m
57km SW of HORSHAM


  Time     Wind        Temp  DP   Baro     Rain since   Rain past  Vis(m), Cloud(base in m), Weather
  local        km/h                         9am  last   hr   10m    
Sun 11:00  SSW 19/ 30  16.0  8.7  1011.4    0.0   0.0   0.0   0.0   ----- 
Sun 11:30  SSW 17/ 28  17.6  8.5  1011.8    0.0   0.0   0.0   0.0   ----- 
Sun 12:00   SW 20/ 32  15.4 10.0  1012.5    0.0   0.0   0.0   0.0   ----- 
Sun 12:30  SSW 17/ 28  17.0  9.7  1012.5    0.0   0.0   0.0   0.0   ----- 
Sun 13:00  SSW 17/ 28  19.1  8.1  1012.7    0.0   0.0   0.0   0.0   ----- 
Sun 13:30  SSW 15/ 28  18.0  7.7  1013.0    0.0   0.0   0.0   0.0   ----- 
Sun 14:00  SSW 19/ 32  19.3  8.0  1013.0    0.0   0.0   0.0   0.0   ----- 
Sun 14:30   SW 22/ 32  19.9  8.6  1013.0    0.0   0.0   0.0   0.0   ----- 
Sun 15:00  SSW 17/ 28  19.6  6.4  1012.9    0.0   0.0   0.0   0.0   ----- 
Sun 15:30  SSW 19/ 32  18.7  8.4  1013.2    0.0   0.0   0.0   0.0   ----- 
Sun 16:00  SSW 15/ 24  19.4  6.8  1013.4    0.0   0.0   0.0   0.0   ----- 
Sun 16:30    S 20/ 30  18.6  7.7  1013.5    0.0   0.0   0.0   0.0   ----- 

LONGERENONG

Site: 079028
Alt: 133.0m
10km ENE of HORSHAM


  Time     Wind        Temp  DP   Baro     Rain since   Rain past  Vis(m), Cloud(base in m), Weather
  local        km/h                         9am  last   hr   10m    
Sun 11:00  SSW 22/ 32  18.0  8.8  ------    0.0   0.0   0.0   0.0   ----- 
Sun 11:30  SSW 24/ 32  19.0  8.4  ------    0.0   0.0   0.0   0.0   ----- 
Sun 12:00  SSW 24/ 37  20.3  8.3  ------    0.0   0.0   0.0   0.0   ----- 
Sun 12:30  SSW 24/ 39  19.9  7.3  ------    0.0   0.0   0.0   0.0   ----- 
Sun 13:00    S 20/ 28  21.1  7.3  ------    0.0   0.0   0.0   0.0   ----- 
Sun 13:30  SSW 17/ 24  20.7  7.0  ------    0.0   0.0   0.0   0.0   ----- 
Sun 14:00    S 17/ 26  20.5  6.8  ------    0.0   0.0   0.0   0.0   ----- 
Sun 14:30    S 11/ 15  22.0  6.7  ------    0.0   0.0   0.0   0.0   ----- 
Sun 15:00  SSW 22/ 35  22.5  6.7  ------    0.0   0.0   0.0   0.0   ----- 
Sun 15:30  SSW 17/ 28  21.8  5.7  ------    0.0   0.0   0.0   0.0   ----- 
Sun 16:00  SSW 20/ 37  22.0  5.8  ------    0.0   0.0   0.0   0.0   ----- 
Sun 16:30  SSE 13/ 24  22.3  6.1  ------    0.0   0.0   0.0   0.0   ----- 

PYRENEES (BEN NEVIS)

Site: 079101
Alt: 875.0m
25km ENE of ARARAT


  Time     Wind        Temp  DP   Baro     Rain since   Rain past  Vis(m), Cloud(base in m), Weather
  local        km/h                         9am  last   hr   10m    
Sun 11:00  SSW 24/ 39   9.0  8.9  ------    0.0   0.0   0.0   0.0   ----- 
Sun 11:30  SSW 17/ 33   9.7  9.6  ------    0.0   0.0   0.0   0.0   ----- 
Sun 12:00  SSW 26/ 45   9.8  9.7  ------    0.0   0.0   0.0   0.0   ----- 
Sun 12:30  SSW 20/ 35  11.3 10.0  ------    0.0   0.0   0.0   0.0   ----- 
Sun 13:00  SSW 20/ 37  11.8  9.4  ------    0.0   0.0   0.0   0.0   ----- 
Sun 13:30  SSW 20/ 33  12.3  8.2  ------    0.0   0.0   0.0   0.0   ----- 
Sun 14:00   SW 19/ 30  12.9  8.4  ------    0.0   0.0   0.0   0.0   ----- 
Sun 14:30  SSW 22/ 37  14.2  9.0  ------    0.0   0.0   0.0   0.0   ----- 
Sun 15:00   SW 20/ 39  14.8  9.2  ------    0.0   0.0   0.0   0.0   ----- 
Sun 15:30  SSW 22/ 43  13.5  8.1  ------    0.0   0.0   0.0   0.0   ----- 
Sun 16:00  SSW 17/ 33  13.3  8.0  ------    0.0   0.0   0.0   0.0   ----- 
Sun 16:30  SSW 20/ 39  14.0  8.6  ------    0.0   0.0   0.0   0.0   ----- 

STAWELL AERODROME

Site: 079105
Alt: 235.4m
4km WSW of STAWELL


  Time     Wind        Temp  DP   Baro     Rain since   Rain past  Vis(m), Cloud(base in m), Weather
  local        km/h                         9am  last   hr   10m    
Sun 11:00    S 24/ 37  17.4  9.3  1010.4    0.0   0.0   0.0   0.0   ----- 
Sun 11:30  SSW 22/ 39  16.4  8.9  1011.1    0.0   0.0   0.0   0.0   ----- 
Sun 12:00  SSW 19/ 30  16.8  8.8  1011.4    0.0   0.0   0.0   0.0   ----- 
Sun 12:30  WSW 13/ 20  17.1  8.8  1011.7    0.0   0.0   0.0   0.0   ----- 
Sun 13:00  SSW 17/ 26  16.7  8.9  1012.1    0.0   0.0   0.0   0.0   ----- 
Sun 13:30  SSW 17/ 28  18.5  7.0  1012.0    0.0   0.0   0.0   0.0   ----- 
Sun 14:00   SW 17/ 24  18.7  7.8  1012.2    0.0   0.0   0.0   0.0   ----- 
Sun 14:30  SSW 17/ 26  18.3  6.8  1012.3    0.0   0.0   0.0   0.0   ----- 
Sun 15:00  SSW 19/ 26  19.9  6.6  1012.1    0.0   0.0   0.0   0.0   ----- 
Sun 15:30  SSW 19/ 32  19.9  7.6  1012.3    0.0   0.0   0.0   0.0   ----- 
Sun 16:00    S 17/ 30  19.3  6.4  1012.4    0.0   0.0   0.0   0.0   ----- 
Sun 16:30    S 20/ 35  19.4  8.1  1012.7    0.0   0.0   0.0   0.0   -----